CEB759 RPLL-RPME
Flight info
| Callsign | CEB759 |
|---|---|
| Flight time | 1h 20m |
| Altitude | 35000 |
| Route | RDVXIPATA/06 IPATA B462 TAC W9 BANWA |
| Aircraft | A20N/M-SDE2E3FGHIRWXY/LB1 |
Departure
| Time | 2026-05-08 14:02 |
|---|---|
| Airport | Ninoy Aquino International Airport (RPLL) |
Arrival
| Time | 2026-05-08 15:22 |
|---|---|
| Airport | Bancasi Airport (RPME) |
| Time | Latitude | Longitude | Altitude | Speed | Heading |
|---|---|---|---|---|---|
| 2026-05-08 13:53 | 14.51408 | 121.01533 | 82 ft | 0 kts | 137° |
| 2026-05-08 13:54 | 14.51384 | 121.01557 | 82 ft | 9 kts | 134° |
| 2026-05-08 13:54 | 14.51337 | 121.01607 | 82 ft | 10 kts | 135° |
| 2026-05-08 13:54 | 14.51282 | 121.01662 | 82 ft | 11 kts | 133° |
| 2026-05-08 13:55 | 14.51224 | 121.01723 | 82 ft | 12 kts | 135° |
| 2026-05-08 13:55 | 14.51161 | 121.01789 | 82 ft | 13 kts | 134° |
| 2026-05-08 13:55 | 14.51033 | 121.01915 | 82 ft | 12 kts | 159° |
| 2026-05-08 13:56 | 14.50979 | 121.01878 | 82 ft | 10 kts | 243° |
| 2026-05-08 13:56 | 14.50940 | 121.01806 | 82 ft | 12 kts | 240° |
| 2026-05-08 13:56 | 14.50897 | 121.01728 | 82 ft | 13 kts | 240° |
| 2026-05-08 13:56 | 14.50851 | 121.01645 | 82 ft | 13 kts | 240° |
| 2026-05-08 13:57 | 14.50802 | 121.01556 | 82 ft | 14 kts | 240° |
| 2026-05-08 13:57 | 14.50751 | 121.01465 | 82 ft | 14 kts | 240° |
| 2026-05-08 13:57 | 14.50701 | 121.01375 | 82 ft | 14 kts | 240° |
| 2026-05-08 13:57 | 14.50649 | 121.01283 | 82 ft | 14 kts | 240° |
| 2026-05-08 13:58 | 14.50604 | 121.01199 | 82 ft | 13 kts | 240° |
| 2026-05-08 13:58 | 14.50556 | 121.01115 | 82 ft | 14 kts | 240° |
| 2026-05-08 13:58 | 14.50507 | 121.01026 | 82 ft | 14 kts | 240° |
| 2026-05-08 13:58 | 14.50456 | 121.00935 | 82 ft | 14 kts | 240° |
| 2026-05-08 13:59 | 14.50406 | 121.00845 | 82 ft | 15 kts | 240° |
| 2026-05-08 13:59 | 14.50353 | 121.00748 | 82 ft | 15 kts | 239° |
| 2026-05-08 13:59 | 14.50299 | 121.00652 | 82 ft | 15 kts | 239° |
| 2026-05-08 13:59 | 14.50244 | 121.00552 | 82 ft | 15 kts | 241° |
| 2026-05-08 14:00 | 14.50191 | 121.00458 | 82 ft | 14 kts | 240° |
| 2026-05-08 14:00 | 14.50171 | 121.00421 | 82 ft | 0 kts | 240° |
| 2026-05-08 14:00 | 14.50169 | 121.00419 | 82 ft | 1 kts | 240° |
| 2026-05-08 14:00 | 14.50152 | 121.00387 | 82 ft | 6 kts | 241° |
| 2026-05-08 14:01 | 14.50113 | 121.00362 | 82 ft | 7 kts | 174° |
| 2026-05-08 14:01 | 14.50060 | 121.00388 | 82 ft | 9 kts | 150° |
| 2026-05-08 14:01 | 14.50021 | 121.00440 | 82 ft | 10 kts | 79° |
| 2026-05-08 14:01 | 14.50069 | 121.00528 | 82 ft | 32 kts | 59° |
| 2026-05-08 14:02 | 14.50322 | 121.00980 | 82 ft | 109 kts | 60° |
| 2026-05-08 14:02 | 14.50800 | 121.01844 | 149 ft | 161 kts | 62° |
| 2026-05-08 14:02 | 14.51357 | 121.02883 | 732 ft | 167 kts | 62° |
| 2026-05-08 14:02 | 14.51894 | 121.03897 | 1572 ft | 162 kts | 63° |
| 2026-05-08 14:03 | 14.52430 | 121.04890 | 2234 ft | 165 kts | 63° |
| 2026-05-08 14:03 | 14.53020 | 121.05979 | 2695 ft | 182 kts | 62° |
| 2026-05-08 14:03 | 14.53659 | 121.07161 | 3162 ft | 199 kts | 62° |
| 2026-05-08 14:03 | 14.54358 | 121.08464 | 3543 ft | 223 kts | 62° |
| 2026-05-08 14:04 | 14.55124 | 121.09944 | 4056 ft | 242 kts | 68° |
| 2026-05-08 14:04 | 14.55660 | 121.11631 | 4670 ft | 257 kts | 75° |
| 2026-05-08 14:04 | 14.56095 | 121.13441 | 5533 ft | 262 kts | 77° |
| 2026-05-08 14:04 | 14.56517 | 121.15270 | 6405 ft | 266 kts | 77° |
| 2026-05-08 14:05 | 14.56941 | 121.17099 | 7261 ft | 269 kts | 77° |
| 2026-05-08 14:05 | 14.57384 | 121.18968 | 8118 ft | 272 kts | 77° |
| 2026-05-08 14:05 | 14.57842 | 121.20857 | 8943 ft | 276 kts | 77° |
| 2026-05-08 14:05 | 14.58319 | 121.22781 | 9754 ft | 279 kts | 77° |
| 2026-05-08 14:06 | 14.58801 | 121.24725 | 10490 ft | 284 kts | 77° |
| 2026-05-08 14:06 | 14.59291 | 121.26757 | 10922 ft | 301 kts | 77° |
| 2026-05-08 14:06 | 14.59756 | 121.28926 | 11267 ft | 319 kts | 83° |
| 2026-05-08 14:06 | 14.59476 | 121.31236 | 11720 ft | 332 kts | 112° |
| 2026-05-08 14:07 | 14.58124 | 121.33147 | 12382 ft | 339 kts | 138° |
| 2026-05-08 14:07 | 14.56117 | 121.34495 | 13037 ft | 345 kts | 147° |
| 2026-05-08 14:07 | 14.54202 | 121.35960 | 13607 ft | 349 kts | 135° |
| 2026-05-08 14:07 | 14.52496 | 121.37765 | 14274 ft | 352 kts | 131° |
| 2026-05-08 14:08 | 14.51392 | 121.38999 | 14718 ft | 353 kts | 131° |
| 2026-05-08 14:08 | 14.49161 | 121.41481 | 15622 ft | 356 kts | 131° |
| 2026-05-08 14:08 | 14.47465 | 121.43333 | 16254 ft | 358 kts | 132° |
| 2026-05-08 14:08 | 14.46313 | 121.44580 | 16659 ft | 360 kts | 132° |
| 2026-05-08 14:09 | 14.43976 | 121.47086 | 17422 ft | 364 kts | 133° |
| 2026-05-08 14:09 | 14.42213 | 121.48962 | 17980 ft | 368 kts | 133° |
| 2026-05-08 14:09 | 14.40435 | 121.50850 | 18514 ft | 371 kts | 133° |
| 2026-05-08 14:09 | 14.38605 | 121.52788 | 19044 ft | 375 kts | 133° |
| 2026-05-08 14:10 | 14.36791 | 121.54706 | 19562 ft | 378 kts | 134° |
| 2026-05-08 14:10 | 14.34933 | 121.56669 | 20078 ft | 381 kts | 134° |
| 2026-05-08 14:10 | 14.33077 | 121.58629 | 20585 ft | 385 kts | 134° |
| 2026-05-08 14:10 | 14.31822 | 121.59954 | 20930 ft | 387 kts | 134° |
| 2026-05-08 14:11 | 14.29327 | 121.62589 | 21603 ft | 391 kts | 134° |
| 2026-05-08 14:11 | 14.27412 | 121.64611 | 22103 ft | 394 kts | 134° |
| 2026-05-08 14:11 | 14.26136 | 121.65957 | 22439 ft | 396 kts | 135° |
| 2026-05-08 14:11 | 14.23547 | 121.68685 | 23110 ft | 400 kts | 134° |
| 2026-05-08 14:12 | 14.21598 | 121.70736 | 23617 ft | 403 kts | 134° |
| 2026-05-08 14:12 | 14.19632 | 121.72807 | 24115 ft | 406 kts | 134° |
| 2026-05-08 14:12 | 14.17631 | 121.74914 | 24627 ft | 408 kts | 134° |
| 2026-05-08 14:12 | 14.15640 | 121.77010 | 25091 ft | 411 kts | 134° |
| 2026-05-08 14:13 | 14.13659 | 121.79097 | 25559 ft | 414 kts | 134° |
| 2026-05-08 14:13 | 14.11617 | 121.81245 | 26014 ft | 417 kts | 134° |
| 2026-05-08 14:13 | 14.09603 | 121.83366 | 26454 ft | 420 kts | 134° |
| 2026-05-08 14:13 | 14.07557 | 121.85517 | 26886 ft | 422 kts | 135° |
| 2026-05-08 14:14 | 14.05475 | 121.87706 | 27316 ft | 425 kts | 134° |
| 2026-05-08 14:14 | 14.03405 | 121.89882 | 27719 ft | 428 kts | 134° |
| 2026-05-08 14:14 | 14.01323 | 121.92070 | 28142 ft | 429 kts | 134° |
| 2026-05-08 14:14 | 13.99923 | 121.93540 | 28399 ft | 431 kts | 135° |
| 2026-05-08 14:15 | 13.97827 | 121.95741 | 28785 ft | 433 kts | 135° |
| 2026-05-08 14:15 | 13.95718 | 121.97957 | 29138 ft | 436 kts | 135° |
| 2026-05-08 14:15 | 13.93587 | 122.00194 | 29455 ft | 439 kts | 134° |
| 2026-05-08 14:15 | 13.90735 | 122.03188 | 29933 ft | 442 kts | 134° |
| 2026-05-08 14:16 | 13.89296 | 122.04698 | 30237 ft | 441 kts | 135° |
| 2026-05-08 14:16 | 13.86429 | 122.07707 | 30810 ft | 441 kts | 135° |
| 2026-05-08 14:16 | 13.84989 | 122.09216 | 31065 ft | 442 kts | 135° |
| 2026-05-08 14:16 | 13.82825 | 122.11483 | 31451 ft | 442 kts | 135° |
| 2026-05-08 14:17 | 13.80670 | 122.13741 | 31845 ft | 443 kts | 135° |
| 2026-05-08 14:17 | 13.78535 | 122.15977 | 32218 ft | 443 kts | 135° |
| 2026-05-08 14:17 | 13.76368 | 122.18247 | 32608 ft | 444 kts | 135° |
| 2026-05-08 14:17 | 13.73474 | 122.21278 | 33173 ft | 444 kts | 135° |
| 2026-05-08 14:18 | 13.71314 | 122.23540 | 33599 ft | 443 kts | 135° |
| 2026-05-08 14:18 | 13.69875 | 122.25046 | 33864 ft | 443 kts | 135° |
| 2026-05-08 14:18 | 13.67728 | 122.27292 | 34254 ft | 444 kts | 135° |
| 2026-05-08 14:18 | 13.64825 | 122.30328 | 34735 ft | 444 kts | 135° |
| 2026-05-08 14:19 | 13.62660 | 122.32591 | 34933 ft | 447 kts | 135° |
| 2026-05-08 14:19 | 13.58307 | 122.37138 | 34930 ft | 447 kts | 135° |
| 2026-05-08 14:20 | 13.54672 | 122.40935 | 34928 ft | 447 kts | 135° |
| 2026-05-08 14:20 | 13.49594 | 122.46237 | 34925 ft | 446 kts | 135° |
| 2026-05-08 14:21 | 13.45237 | 122.50785 | 34924 ft | 446 kts | 135° |
| 2026-05-08 14:21 | 13.40886 | 122.55323 | 34921 ft | 446 kts | 135° |
| 2026-05-08 14:22 | 13.36552 | 122.59840 | 34920 ft | 445 kts | 135° |
| 2026-05-08 14:22 | 13.32185 | 122.64388 | 34918 ft | 446 kts | 135° |
| 2026-05-08 14:23 | 13.27844 | 122.68909 | 34917 ft | 445 kts | 135° |
| 2026-05-08 14:23 | 13.23495 | 122.73434 | 34916 ft | 446 kts | 135° |
| 2026-05-08 14:24 | 13.19878 | 122.77196 | 34916 ft | 446 kts | 135° |
| 2026-05-08 14:24 | 13.15529 | 122.81718 | 34917 ft | 446 kts | 135° |
| 2026-05-08 14:25 | 13.10434 | 122.87013 | 34916 ft | 445 kts | 135° |
| 2026-05-08 14:25 | 13.06816 | 122.90771 | 34916 ft | 445 kts | 135° |
| 2026-05-08 14:26 | 13.01743 | 122.96036 | 34916 ft | 445 kts | 135° |
| 2026-05-08 14:26 | 12.97371 | 123.00570 | 34916 ft | 445 kts | 135° |
| 2026-05-08 14:27 | 12.93017 | 123.05084 | 34916 ft | 446 kts | 135° |
| 2026-05-08 14:27 | 12.88646 | 123.09614 | 34916 ft | 446 kts | 135° |
| 2026-05-08 14:28 | 12.84295 | 123.14121 | 34917 ft | 446 kts | 135° |
| 2026-05-08 14:28 | 12.79936 | 123.18634 | 34918 ft | 446 kts | 135° |
| 2026-05-08 14:29 | 12.75566 | 123.23154 | 34917 ft | 445 kts | 135° |
| 2026-05-08 14:29 | 12.71200 | 123.27668 | 34916 ft | 445 kts | 135° |
| 2026-05-08 14:30 | 12.66832 | 123.32182 | 34916 ft | 446 kts | 135° |
| 2026-05-08 14:30 | 12.63207 | 123.35927 | 34915 ft | 446 kts | 135° |
| 2026-05-08 14:31 | 12.58112 | 123.41189 | 34914 ft | 446 kts | 135° |
| 2026-05-08 14:31 | 12.53728 | 123.45714 | 34916 ft | 445 kts | 135° |
| 2026-05-08 14:32 | 12.47204 | 123.52443 | 34924 ft | 445 kts | 135° |
| 2026-05-08 14:32 | 12.42839 | 123.56941 | 34923 ft | 446 kts | 135° |
| 2026-05-08 14:33 | 12.38465 | 123.61446 | 34923 ft | 445 kts | 134° |
| 2026-05-08 14:33 | 12.34343 | 123.66200 | 34925 ft | 446 kts | 130° |
| 2026-05-08 14:34 | 12.30414 | 123.71062 | 34923 ft | 445 kts | 130° |
| 2026-05-08 14:34 | 12.27117 | 123.75143 | 34921 ft | 445 kts | 130° |
| 2026-05-08 14:35 | 12.22520 | 123.80823 | 34920 ft | 445 kts | 130° |
| 2026-05-08 14:35 | 12.19234 | 123.84876 | 34918 ft | 445 kts | 130° |
| 2026-05-08 14:36 | 12.14623 | 123.90561 | 34916 ft | 445 kts | 130° |
| 2026-05-08 14:36 | 12.10682 | 123.95417 | 34917 ft | 445 kts | 130° |
| 2026-05-08 14:37 | 12.06713 | 124.00304 | 34915 ft | 445 kts | 130° |
| 2026-05-08 14:37 | 12.02773 | 124.05154 | 34918 ft | 446 kts | 130° |
| 2026-05-08 14:38 | 11.98814 | 124.10027 | 34917 ft | 445 kts | 130° |
| 2026-05-08 14:38 | 11.95531 | 124.14064 | 34920 ft | 444 kts | 130° |
| 2026-05-08 14:39 | 11.91580 | 124.18922 | 34918 ft | 444 kts | 130° |
| 2026-05-08 14:39 | 11.86946 | 124.24614 | 34917 ft | 445 kts | 130° |
| 2026-05-08 14:40 | 11.82989 | 124.29470 | 34916 ft | 445 kts | 130° |
| 2026-05-08 14:40 | 11.79051 | 124.34302 | 34916 ft | 445 kts | 130° |
| 2026-05-08 14:41 | 11.75751 | 124.38351 | 34916 ft | 445 kts | 130° |
| 2026-05-08 14:41 | 11.71811 | 124.43182 | 34918 ft | 444 kts | 130° |
| 2026-05-08 14:42 | 11.67855 | 124.48029 | 34923 ft | 444 kts | 130° |
| 2026-05-08 14:42 | 11.63237 | 124.53686 | 34930 ft | 444 kts | 130° |
| 2026-05-08 14:43 | 11.59283 | 124.58528 | 34933 ft | 444 kts | 130° |
| 2026-05-08 14:43 | 11.55325 | 124.63371 | 34933 ft | 445 kts | 130° |
| 2026-05-08 14:44 | 11.52020 | 124.67413 | 34933 ft | 445 kts | 130° |
| 2026-05-08 14:44 | 11.47388 | 124.73074 | 34931 ft | 446 kts | 130° |
| 2026-05-08 14:45 | 11.43434 | 124.77904 | 34926 ft | 445 kts | 129° |
| 2026-05-08 14:45 | 11.39471 | 124.82747 | 34925 ft | 442 kts | 130° |
| 2026-05-08 14:46 | 11.36187 | 124.86755 | 34925 ft | 442 kts | 130° |
| 2026-05-08 14:46 | 11.31597 | 124.92356 | 34925 ft | 443 kts | 130° |
| 2026-05-08 14:47 | 11.27545 | 124.97115 | 34920 ft | 443 kts | 135° |
| 2026-05-08 14:47 | 11.22697 | 125.01002 | 34923 ft | 443 kts | 148° |
| 2026-05-08 14:48 | 11.18114 | 125.03292 | 34928 ft | 443 kts | 159° |
| 2026-05-08 14:48 | 11.12136 | 125.04909 | 34939 ft | 444 kts | 168° |
| 2026-05-08 14:49 | 11.05040 | 125.06321 | 34940 ft | 443 kts | 168° |
| 2026-05-08 14:49 | 11.00004 | 125.07330 | 34938 ft | 443 kts | 168° |
| 2026-05-08 14:50 | 10.93929 | 125.08559 | 34934 ft | 443 kts | 168° |
| 2026-05-08 14:50 | 10.86836 | 125.10000 | 34933 ft | 444 kts | 168° |
| 2026-05-08 14:51 | 10.80824 | 125.11403 | 34933 ft | 443 kts | 163° |
| 2026-05-08 14:51 | 10.74928 | 125.13277 | 34931 ft | 443 kts | 161° |
| 2026-05-08 14:52 | 10.67071 | 125.15832 | 34932 ft | 442 kts | 161° |
| 2026-05-08 14:53 | 10.60247 | 125.18044 | 34932 ft | 440 kts | 162° |
| 2026-05-08 14:53 | 10.54406 | 125.19935 | 34929 ft | 440 kts | 162° |
| 2026-05-08 14:54 | 10.49549 | 125.21503 | 34926 ft | 439 kts | 161° |
| 2026-05-08 14:54 | 10.43702 | 125.23392 | 34921 ft | 440 kts | 161° |
| 2026-05-08 14:55 | 10.37837 | 125.25286 | 34918 ft | 440 kts | 161° |
| 2026-05-08 14:55 | 10.32002 | 125.27171 | 34917 ft | 441 kts | 161° |
| 2026-05-08 14:55 | 10.28099 | 125.28431 | 34785 ft | 439 kts | 161° |
| 2026-05-08 14:56 | 10.26152 | 125.29060 | 34312 ft | 441 kts | 161° |
| 2026-05-08 14:56 | 10.23233 | 125.30004 | 33150 ft | 449 kts | 161° |
| 2026-05-08 14:56 | 10.20223 | 125.30978 | 32123 ft | 454 kts | 161° |
| 2026-05-08 14:56 | 10.17211 | 125.31950 | 31292 ft | 455 kts | 161° |
| 2026-05-08 14:57 | 10.14194 | 125.32922 | 30441 ft | 457 kts | 161° |
| 2026-05-08 14:57 | 10.11167 | 125.33898 | 29500 ft | 461 kts | 161° |
| 2026-05-08 14:57 | 10.08088 | 125.34892 | 28582 ft | 463 kts | 161° |
| 2026-05-08 14:57 | 10.04023 | 125.36201 | 27786 ft | 456 kts | 161° |
| 2026-05-08 14:58 | 10.01991 | 125.36857 | 27398 ft | 453 kts | 161° |
| 2026-05-08 14:58 | 9.99000 | 125.37820 | 26796 ft | 449 kts | 161° |
| 2026-05-08 14:58 | 9.96032 | 125.38775 | 26180 ft | 443 kts | 161° |
| 2026-05-08 14:58 | 9.93141 | 125.39705 | 25276 ft | 433 kts | 161° |
| 2026-05-08 14:59 | 9.89353 | 125.40923 | 23955 ft | 419 kts | 160° |
| 2026-05-08 14:59 | 9.84804 | 125.42384 | 23194 ft | 406 kts | 160° |
| 2026-05-08 14:59 | 9.82104 | 125.43253 | 22699 ft | 403 kts | 160° |
| 2026-05-08 15:00 | 9.78558 | 125.44396 | 22039 ft | 399 kts | 160° |
| 2026-05-08 15:00 | 9.76782 | 125.44968 | 21711 ft | 398 kts | 160° |
| 2026-05-08 15:00 | 9.74147 | 125.45818 | 21226 ft | 395 kts | 160° |
| 2026-05-08 15:00 | 9.71531 | 125.46633 | 20743 ft | 394 kts | 163° |
| 2026-05-08 15:01 | 9.67892 | 125.47031 | 20100 ft | 394 kts | 180° |
| 2026-05-08 15:01 | 9.66068 | 125.46839 | 19783 ft | 394 kts | 187° |
| 2026-05-08 15:01 | 9.62513 | 125.46127 | 19163 ft | 391 kts | 189° |
| 2026-05-08 15:01 | 9.60731 | 125.45738 | 18849 ft | 389 kts | 190° |
| 2026-05-08 15:02 | 9.58073 | 125.45160 | 18379 ft | 386 kts | 189° |
| 2026-05-08 15:02 | 9.55470 | 125.44602 | 17915 ft | 383 kts | 189° |
| 2026-05-08 15:02 | 9.52864 | 125.44052 | 17454 ft | 380 kts | 189° |
| 2026-05-08 15:02 | 9.49397 | 125.43327 | 16835 ft | 376 kts | 189° |
| 2026-05-08 15:03 | 9.46862 | 125.42801 | 16360 ft | 374 kts | 189° |
| 2026-05-08 15:03 | 9.45159 | 125.42448 | 16033 ft | 373 kts | 189° |
| 2026-05-08 15:03 | 9.42605 | 125.41918 | 15540 ft | 370 kts | 189° |
| 2026-05-08 15:03 | 9.40107 | 125.41399 | 15063 ft | 368 kts | 189° |
| 2026-05-08 15:04 | 9.37594 | 125.40879 | 14612 ft | 364 kts | 189° |
| 2026-05-08 15:04 | 9.35129 | 125.40367 | 14217 ft | 359 kts | 189° |
| 2026-05-08 15:04 | 9.31919 | 125.39698 | 13550 ft | 344 kts | 189° |
| 2026-05-08 15:04 | 9.30358 | 125.39372 | 13079 ft | 337 kts | 189° |
| 2026-05-08 15:05 | 9.28096 | 125.38901 | 12386 ft | 328 kts | 189° |
| 2026-05-08 15:05 | 9.25903 | 125.38443 | 11705 ft | 319 kts | 189° |
| 2026-05-08 15:05 | 9.23763 | 125.37996 | 11039 ft | 311 kts | 189° |
| 2026-05-08 15:05 | 9.21000 | 125.37420 | 10300 ft | 298 kts | 189° |
| 2026-05-08 15:06 | 9.19646 | 125.37138 | 9828 ft | 296 kts | 189° |
| 2026-05-08 15:06 | 9.17638 | 125.36721 | 9093 ft | 293 kts | 190° |
| 2026-05-08 15:06 | 9.15731 | 125.36015 | 8328 ft | 295 kts | 214° |
| 2026-05-08 15:06 | 9.14435 | 125.34473 | 7591 ft | 295 kts | 247° |
| 2026-05-08 15:07 | 9.13980 | 125.32460 | 6888 ft | 291 kts | 265° |
| 2026-05-08 15:07 | 9.13831 | 125.30434 | 6192 ft | 289 kts | 268° |
| 2026-05-08 15:07 | 9.14025 | 125.28459 | 5449 ft | 284 kts | 294° |
| 2026-05-08 15:07 | 9.15437 | 125.26286 | 4773 ft | 275 kts | 309° |
| 2026-05-08 15:08 | 9.16253 | 125.25294 | 4777 ft | 276 kts | 318° |
| 2026-05-08 15:08 | 9.17889 | 125.24361 | 4786 ft | 271 kts | 351° |
| 2026-05-08 15:08 | 9.19744 | 125.24442 | 4813 ft | 266 kts | 19° |
| 2026-05-08 15:08 | 9.21340 | 125.25357 | 4836 ft | 264 kts | 45° |
| 2026-05-08 15:09 | 9.22354 | 125.26880 | 4855 ft | 262 kts | 71° |
| 2026-05-08 15:09 | 9.22531 | 125.28709 | 4867 ft | 263 kts | 99° |
| 2026-05-08 15:09 | 9.21854 | 125.30429 | 4798 ft | 267 kts | 120° |
| 2026-05-08 15:09 | 9.20470 | 125.32513 | 4641 ft | 266 kts | 123° |
| 2026-05-08 15:10 | 9.19405 | 125.34032 | 4521 ft | 266 kts | 123° |
| 2026-05-08 15:10 | 9.18685 | 125.35051 | 4441 ft | 266 kts | 123° |
| 2026-05-08 15:10 | 9.17617 | 125.36563 | 4321 ft | 265 kts | 123° |
| 2026-05-08 15:10 | 9.16545 | 125.38087 | 4202 ft | 265 kts | 123° |
| 2026-05-08 15:11 | 9.15472 | 125.39616 | 4080 ft | 264 kts | 123° |
| 2026-05-08 15:11 | 9.14417 | 125.41120 | 3961 ft | 264 kts | 123° |
| 2026-05-08 15:11 | 9.13348 | 125.42647 | 3839 ft | 264 kts | 123° |
| 2026-05-08 15:11 | 9.12283 | 125.44168 | 3717 ft | 263 kts | 123° |
| 2026-05-08 15:12 | 9.11233 | 125.45665 | 3593 ft | 263 kts | 123° |
| 2026-05-08 15:12 | 9.10172 | 125.47181 | 3502 ft | 262 kts | 123° |
| 2026-05-08 15:12 | 9.09119 | 125.48682 | 3492 ft | 263 kts | 123° |
| 2026-05-08 15:12 | 9.07695 | 125.50712 | 3351 ft | 262 kts | 123° |
| 2026-05-08 15:13 | 9.06645 | 125.52209 | 3241 ft | 262 kts | 123° |
| 2026-05-08 15:13 | 9.05589 | 125.53718 | 3133 ft | 262 kts | 123° |
| 2026-05-08 15:13 | 9.04528 | 125.55231 | 3016 ft | 262 kts | 123° |
| 2026-05-08 15:13 | 9.03484 | 125.56714 | 2901 ft | 261 kts | 123° |
| 2026-05-08 15:14 | 9.02415 | 125.58218 | 2781 ft | 262 kts | 124° |
| 2026-05-08 15:14 | 9.01347 | 125.59715 | 2720 ft | 262 kts | 124° |
| 2026-05-08 15:14 | 9.00283 | 125.61206 | 2719 ft | 262 kts | 123° |
| 2026-05-08 15:14 | 8.99213 | 125.62709 | 2718 ft | 261 kts | 124° |
| 2026-05-08 15:15 | 8.98151 | 125.64201 | 2718 ft | 261 kts | 124° |
| 2026-05-08 15:15 | 8.97086 | 125.65696 | 2717 ft | 261 kts | 124° |
| 2026-05-08 15:15 | 8.96022 | 125.67191 | 2716 ft | 261 kts | 124° |
| 2026-05-08 15:15 | 8.94981 | 125.68650 | 2713 ft | 249 kts | 124° |
| 2026-05-08 15:16 | 8.94319 | 125.69577 | 2713 ft | 239 kts | 124° |
| 2026-05-08 15:16 | 8.93190 | 125.70754 | 2700 ft | 233 kts | 150° |
| 2026-05-08 15:16 | 8.91613 | 125.71130 | 2715 ft | 239 kts | 184° |
| 2026-05-08 15:16 | 8.90032 | 125.70612 | 2723 ft | 239 kts | 207° |
| 2026-05-08 15:17 | 8.88622 | 125.69864 | 2711 ft | 227 kts | 207° |
| 2026-05-08 15:17 | 8.87233 | 125.69131 | 2706 ft | 218 kts | 209° |
| 2026-05-08 15:17 | 8.86163 | 125.68142 | 2675 ft | 207 kts | 245° |
| 2026-05-08 15:17 | 8.85983 | 125.66275 | 2708 ft | 203 kts | 292° |
| 2026-05-08 15:18 | 8.86598 | 125.64993 | 2724 ft | 203 kts | 301° |
| 2026-05-08 15:18 | 8.87277 | 125.63737 | 2712 ft | 203 kts | 301° |
| 2026-05-08 15:18 | 8.87946 | 125.62467 | 2714 ft | 203 kts | 300° |
| 2026-05-08 15:18 | 8.88592 | 125.61201 | 2684 ft | 203 kts | 299° |
| 2026-05-08 15:19 | 8.89232 | 125.59920 | 2510 ft | 203 kts | 298° |
| 2026-05-08 15:19 | 8.89648 | 125.59081 | 2371 ft | 201 kts | 298° |
| 2026-05-08 15:19 | 8.90429 | 125.57492 | 2075 ft | 182 kts | 298° |
| 2026-05-08 15:19 | 8.90801 | 125.56737 | 1896 ft | 176 kts | 298° |
| 2026-05-08 15:20 | 8.91337 | 125.55650 | 1648 ft | 168 kts | 299° |
| 2026-05-08 15:20 | 8.91841 | 125.54627 | 1420 ft | 159 kts | 298° |
| 2026-05-08 15:20 | 8.92322 | 125.53648 | 1222 ft | 151 kts | 299° |
| 2026-05-08 15:20 | 8.92946 | 125.52383 | 959 ft | 150 kts | 299° |
| 2026-05-08 15:21 | 8.93414 | 125.51434 | 757 ft | 149 kts | 299° |
| 2026-05-08 15:21 | 8.93713 | 125.50829 | 628 ft | 143 kts | 298° |
| 2026-05-08 15:21 | 8.94138 | 125.49950 | 406 ft | 136 kts | 297° |
| 2026-05-08 15:21 | 8.94686 | 125.48822 | 112 ft | 133 kts | 298° |
| 2026-05-08 15:22 | 8.95068 | 125.48061 | 48 ft | 86 kts | 295° |
| 2026-05-08 15:22 | 8.95214 | 125.47757 | 41 ft | 66 kts | 297° |
| 2026-05-08 15:22 | 8.95451 | 125.47272 | 33 ft | 52 kts | 296° |
| 2026-05-08 15:22 | 8.95533 | 125.47108 | 32 ft | 24 kts | 301° |
| 2026-05-08 15:23 | 8.95603 | 125.47012 | 30 ft | 6 kts | 284° |
| 2026-05-08 15:23 | 8.95577 | 125.47006 | 30 ft | 5 kts | 120° |
| 2026-05-08 15:23 | 8.95566 | 125.47033 | 30 ft | 7 kts | 114° |
| 2026-05-08 15:23 | 8.95536 | 125.47096 | 31 ft | 13 kts | 116° |
| 2026-05-08 15:24 | 8.95493 | 125.47182 | 33 ft | 13 kts | 116° |
| 2026-05-08 15:24 | 8.95449 | 125.47274 | 33 ft | 14 kts | 116° |
| 2026-05-08 15:24 | 8.95404 | 125.47366 | 35 ft | 13 kts | 116° |
| 2026-05-08 15:24 | 8.95363 | 125.47448 | 38 ft | 12 kts | 117° |
| 2026-05-08 15:25 | 8.95325 | 125.47524 | 39 ft | 14 kts | 116° |
| 2026-05-08 15:25 | 8.95271 | 125.47636 | 39 ft | 18 kts | 116° |
| 2026-05-08 15:25 | 8.95218 | 125.47746 | 41 ft | 16 kts | 116° |
| 2026-05-08 15:25 | 8.95150 | 125.47884 | 43 ft | 15 kts | 116° |
| 2026-05-08 15:26 | 8.95117 | 125.47949 | 45 ft | 15 kts | 116° |
| 2026-05-08 15:26 | 8.95072 | 125.48041 | 47 ft | 13 kts | 117° |
| 2026-05-08 15:26 | 8.95004 | 125.48096 | 49 ft | 12 kts | 161° |
| 2026-05-08 15:26 | 8.94943 | 125.48127 | 50 ft | 7 kts | 126° |
| 2026-05-08 15:27 | 8.94930 | 125.48146 | 51 ft | 1 kts | 152° |
| 2026-05-08 15:27 | 8.94918 | 125.48144 | 51 ft | 2 kts | 204° |
| 2026-05-08 15:27 | 8.94899 | 125.48121 | 50 ft | 4 kts | 237° |
| 2026-05-08 15:27 | 8.94892 | 125.48110 | 50 ft | 0 kts | 235° |